Time;durP1;ratioP1;P1;durP2;ratioP2;P2;SDS_P1;SDS_P2;PMS_P1;PMS_P2;Temp;Humidity;BMP_temperature;BMP_pressure;BME280_temperature;BME280_humidity;BME280_pressure;Samples;Min_cycle;Max_cycle;Signal;HPM_P1;HPM_P2
2021/12/02 00:01:36;;;;;;;1.33;1.23;;;9.20;76.40;;;8.57;60.65;92979.00;5087447;28;20294;-78
2021/12/02 00:04:04;;;;;;;1.65;1.40;;;9.40;76.40;;;8.58;60.65;92979.78;5071050;28;20219;-80
2021/12/02 00:06:31;;;;;;;1.60;1.50;;;9.30;76.40;;;8.61;60.66;92979.34;5054422;28;20215;-79
2021/12/02 00:08:58;;;;;;;1.70;1.60;;;9.30;76.30;;;8.60;60.63;92983.75;5053808;28;20637;-80
2021/12/02 00:11:26;;;;;;;1.60;1.50;;;9.30;76.30;;;8.62;60.79;92980.94;5084957;28;20710;-80
2021/12/02 00:16:53;;;;;;;1.60;1.50;;;9.30;76.30;;;8.60;60.57;92988.22;5053163;28;20696;-79
2021/12/02 00:22:28;;;;;;;1.92;1.42;;;9.30;76.20;;;8.55;60.31;92990.72;5007211;28;20745;-80
2021/12/02 00:25:02;;;;;;;1.70;1.60;;;9.30;75.90;;;8.49;60.17;92993.22;4980622;28;20216;-79
2021/12/02 00:27:29;;;;;;;1.50;1.40;;;9.30;75.80;;;8.43;60.41;92988.06;5008994;28;20191;-79
2021/12/02 00:30:00;;;;;;;1.60;1.50;;;9.30;75.70;;;8.37;60.39;92986.34;5038566;28;20211;-78
2021/12/02 00:32:30;;;;;;;2.80;1.55;;;9.20;75.60;;;8.28;60.53;92997.13;5048707;28;20203;-80
2021/12/02 00:34:58;;;;;;;1.50;1.40;;;9.20;75.60;;;8.20;60.69;92992.22;5070034;28;20590;-79
2021/12/02 00:37:27;;;;;;;1.50;1.40;;;9.20;75.60;;;8.13;60.64;92994.94;5054227;28;20235;-79
2021/12/02 00:39:55;;;;;;;1.60;1.50;;;9.00;75.40;;;7.99;60.66;92986.50;5038094;28;20255;-79
2021/12/02 00:42:24;;;;;;;1.40;1.30;;;9.10;75.60;;;7.95;60.96;92992.41;5054344;28;20567;-80
2021/12/02 00:44:53;;;;;;;1.40;1.30;;;8.90;75.60;;;7.89;61.12;93007.13;5070940;28;20302;-79
2021/12/02 00:47:20;;;;;;;1.90;1.40;;;8.90;75.80;;;7.88;61.48;92987.25;5050927;28;20207;-80
2021/12/02 00:49:49;;;;;;;1.50;1.40;;;8.80;76.00;;;7.89;61.23;92990.69;5023603;28;20219;-80
2021/12/02 00:52:17;;;;;;;1.60;1.50;;;8.80;76.20;;;7.87;61.33;92992.72;5071314;28;20222;-79
2021/12/02 00:54:45;;;;;;;1.60;1.50;;;8.80;76.20;;;7.85;61.67;92991.13;5078692;28;20215;-80
2021/12/02 00:57:13;;;;;;;1.60;1.50;;;8.70;76.30;;;7.87;61.54;92997.94;5050885;28;20188;-80
2021/12/02 00:59:41;;;;;;;1.60;1.50;;;8.70;76.40;;;7.90;61.83;92987.84;5083680;28;20212;-80
2021/12/02 01:02:10;;;;;;;1.60;1.50;;;8.70;76.40;;;7.93;61.65;92982.16;5070979;28;20203;-80
2021/12/02 01:04:39;;;;;;;1.50;1.40;;;8.70;76.50;;;7.95;61.76;92974.91;5085567;28;20623;-80
2021/12/02 01:07:06;;;;;;;1.40;1.30;;;8.70;76.60;;;7.91;61.69;92963.34;5070891;28;20229;-80
2021/12/02 01:09:34;;;;;;;1.70;1.60;;;8.70;76.60;;;7.96;61.23;92973.91;5049753;28;20571;-80
2021/12/02 01:12:02;;;;;;;1.63;1.52;;;8.70;76.50;;;7.97;61.28;92985.13;5067246;28;20199;-80
2021/12/02 01:14:29;;;;;;;1.70;1.60;;;8.70;76.40;;;7.91;61.43;92973.78;5064155;28;20692;-80
2021/12/02 01:16:56;;;;;;;1.60;1.50;;;8.70;76.40;;;7.96;61.25;92978.34;5070341;28;20195;-79
2021/12/02 01:19:24;;;;;;;2.20;2.00;;;8.70;76.30;;;7.97;61.17;92978.09;5070455;28;20211;-80
2021/12/02 01:21:52;;;;;;;1.50;1.40;;;8.70;76.30;;;7.91;61.22;92965.94;5054855;28;20676;-80
2021/12/02 01:24:21;;;;;;;1.70;1.60;;;8.70;76.20;;;7.92;61.06;92979.78;5072145;28;20318;-79
2021/12/02 01:26:53;;;;;;;1.63;1.52;;;8.70;76.20;;;7.90;61.02;92976.59;5056775;28;20249;-80
2021/12/02 01:29:23;;;;;;;1.90;1.70;;;8.70;76.10;;;7.89;61.03;92980.25;5070534;28;20559;-80
2021/12/02 01:31:59;;;;;;;1.60;1.50;;;8.70;76.20;;;7.86;61.19;92978.88;5037517;28;20295;-80
2021/12/02 01:34:27;;;;;;;1.70;1.60;;;8.70;76.10;;;7.81;61.09;92979.53;5054986;28;20712;-80
2021/12/02 01:36:55;;;;;;;2.25;1.75;;;8.60;76.10;;;7.81;61.37;92969.09;5087132;28;20211;-80
2021/12/02 01:39:24;;;;;;;1.60;1.50;;;8.60;76.20;;;7.82;61.32;92964.66;5073878;28;20222;-80
2021/12/02 01:42:00;;;;;;;1.65;1.50;;;8.60;76.20;;;7.84;61.42;92958.19;5057348;28;20665;-80
2021/12/02 01:44:29;;;;;;;1.52;1.42;;;8.60;76.10;;;7.81;61.07;92963.06;5073084;28;20207;-80
2021/12/02 01:47:00;;;;;;;1.85;1.70;;;8.60;76.00;;;7.77;60.53;92957.50;5073176;28;20270;-79
2021/12/02 01:49:32;;;;;;;1.50;1.40;;;8.60;75.90;;;7.74;60.98;92960.56;5069998;28;20650;-80
2021/12/02 01:52:02;;;;;;;1.70;1.60;;;8.60;75.90;;;7.67;60.98;92963.25;5057257;28;20199;-79
2021/12/02 01:54:29;;;;;;;1.50;1.40;;;8.50;75.80;;;7.69;60.96;92950.00;5039836;28;20219;-80
2021/12/02 01:57:07;;;;;;;1.70;1.58;;;8.50;75.90;;;7.65;61.07;92960.09;5085363;28;20662;-79
2021/12/02 01:59:37;;;;;;;2.10;1.42;;;8.50;75.90;;;7.63;60.98;92949.06;5069628;28;20219;-79
2021/12/02 02:02:09;;;;;;;1.63;1.52;;;8.50;76.70;;;7.60;60.95;92959.16;5037163;28;20558;-80
2021/12/02 02:04:37;;;;;;;1.60;1.50;;;8.50;76.60;;;7.62;60.90;92965.75;5052136;28;20215;-80
2021/12/02 02:07:14;;;;;;;1.50;1.40;;;8.40;75.90;;;7.62;60.80;92964.97;5053126;28;20682;-79
2021/12/02 02:09:41;;;;;;;1.60;1.50;;;8.40;75.90;;;7.62;60.44;92973.56;5036766;28;20268;-79
2021/12/02 02:12:12;;;;;;;1.77;1.50;;;8.40;76.00;;;7.64;60.75;92961.09;5036881;28;20282;-79
2021/12/02 02:14:42;;;;;;;1.63;1.52;;;8.40;76.00;;;7.66;60.75;92959.03;5064982;28;20254;-79
2021/12/02 02:17:18;;;;;;;2.25;1.40;;;8.40;76.00;;;7.67;61.00;92952.03;5039855;28;20215;-79
2021/12/02 02:19:46;;;;;;;1.52;1.40;;;8.40;76.10;;;7.67;60.65;92965.09;5057864;28;20227;-79
2021/12/02 02:22:18;;;;;;;1.52;1.42;;;8.50;76.10;;;7.65;60.08;92967.91;5039754;28;20199;-79
2021/12/02 02:24:46;;;;;;;1.55;1.45;;;8.40;75.90;;;7.72;60.63;92967.03;5039578;28;20280;-80
2021/12/02 02:27:13;;;;;;;1.95;1.40;;;8.50;76.00;;;7.77;60.52;92967.94;5086501;28;20205;-78
2021/12/02 02:29:40;;;;;;;1.50;1.40;;;8.50;76.00;;;7.84;60.51;92973.84;5071903;28;20262;-79
2021/12/02 02:32:09;;;;;;;1.40;1.30;;;8.50;75.90;;;7.86;60.25;92965.81;5063404;28;20203;-78
2021/12/02 02:34:36;;;;;;;1.60;1.50;;;8.50;76.00;;;7.92;60.00;92979.78;5070883;28;20775;-78
2021/12/02 02:37:05;;;;;;;1.48;1.38;;;8.60;75.90;;;7.96;60.24;92973.13;5054589;28;20269;-79
2021/12/02 02:39:34;;;;;;;1.95;1.80;;;8.60;75.90;;;7.99;60.18;92975.25;5061330;28;20223;-79
2021/12/02 02:42:05;;;;;;;1.63;1.52;;;8.60;75.70;;;7.98;60.09;92966.66;5047549;28;20238;-79
2021/12/02 02:44:34;;;;;;;1.60;1.50;;;8.70;75.80;;;7.94;59.65;92959.47;5053440;28;20219;-79
2021/12/02 02:47:02;;;;;;;1.63;1.52;;;8.70;75.40;;;7.89;59.91;92957.53;5072099;28;20241;-78
2021/12/02 02:49:29;;;;;;;1.48;1.38;;;8.70;75.20;;;7.82;59.58;92956.84;5071456;28;20273;-79
2021/12/02 02:51:57;;;;;;;1.10;1.10;;;8.70;75.00;;;7.80;59.30;92964.09;5071597;28;20191;-79
2021/12/02 02:54:24;;;;;;;1.40;1.30;;;8.60;74.90;;;7.67;59.90;92955.44;5052039;28;20215;-80
2021/12/02 02:57:05;;;;;;;1.50;1.40;;;8.60;75.00;;;7.65;59.83;92957.47;5054691;28;20581;-79
2021/12/02 03:02:17;;;;;;;1.50;1.40;;;8.50;74.90;;;7.57;60.39;92965.63;5054786;28;20293;-79
2021/12/02 03:07:28;;;;;;;1.60;1.50;;;8.50;74.80;;;7.42;60.44;92973.03;5056221;28;20208;-78
2021/12/02 03:12:50;;;;;;;1.65;1.55;;;8.40;75.10;;;7.31;60.40;92972.75;5057278;28;20234;-79
2021/12/02 03:17:46;;;;;;;1.55;1.45;;;8.30;75.20;;;7.23;60.50;92973.06;5064770;28;20563;-79
2021/12/02 03:20:14;;;;;;;1.30;1.27;;;8.20;75.10;;;7.17;60.23;92977.31;5076880;28;20254;-78
2021/12/02 03:22:43;;;;;;;1.38;1.30;;;8.20;75.20;;;7.16;60.42;92993.97;5069556;28;20614;-79
2021/12/02 03:25:10;;;;;;;1.50;1.40;;;8.10;75.20;;;7.14;60.29;92993.41;5077517;28;20732;-79
2021/12/02 03:27:38;;;;;;;1.73;1.58;;;8.10;75.30;;;7.14;60.25;92985.59;5052650;28;20273;-79
2021/12/02 03:30:07;;;;;;;1.48;1.38;;;8.00;75.40;;;7.17;60.76;92987.75;5047647;28;20258;-78
2021/12/02 03:32:37;;;;;;;2.08;1.20;;;8.00;75.50;;;7.16;60.38;92982.75;5052968;28;20566;-78
2021/12/02 03:35:06;;;;;;;1.42;1.33;;;8.00;75.50;;;7.21;60.70;92983.72;5069990;28;20318;-78
2021/12/02 03:37:34;;;;;;;1.70;1.60;;;8.00;75.60;;;7.21;60.61;92980.28;5053986;28;20196;-78
2021/12/02 03:40:03;;;;;;;1.25;1.20;;;8.00;75.60;;;7.21;60.45;92994.16;5051003;28;20215;-78
2021/12/02 03:42:31;;;;;;;1.48;1.38;;;8.10;76.40;;;7.16;60.46;92982.75;5062792;28;20195;-78
2021/12/02 03:44:58;;;;;;;1.20;1.20;;;8.00;75.60;;;7.19;60.28;93003.19;5052756;28;20242;-78
2021/12/02 03:47:25;;;;;;;1.40;1.30;;;8.00;75.60;;;7.23;60.58;92999.13;5078367;28;20214;-79
2021/12/02 03:49:52;;;;;;;1.42;1.33;;;8.00;75.60;;;7.27;60.71;92996.88;5092929;28;20302;-79
2021/12/02 03:52:20;;;;;;;1.13;1.13;;;8.00;75.70;;;7.26;60.75;92995.28;5038028;28;20192;-79
2021/12/02 03:54:47;;;;;;;1.38;1.27;;;8.00;75.70;;;7.25;60.67;92996.28;5067316;28;20280;-78
2021/12/02 03:57:14;;;;;;;1.35;1.25;;;8.00;75.70;;;7.21;60.75;92991.53;5047465;28;20226;-79
2021/12/02 03:59:41;;;;;;;1.40;1.30;;;8.00;75.80;;;7.26;60.77;92995.28;5068440;28;20746;-78
2021/12/02 04:02:08;;;;;;;1.50;1.40;;;8.10;75.80;;;7.27;60.57;92996.88;5054609;28;20608;-78
2021/12/02 04:04:36;;;;;;;1.30;1.20;;;8.00;75.70;;;7.22;60.77;92989.72;5052943;28;20309;-78
2021/12/02 04:07:03;;;;;;;1.40;1.30;;;8.10;75.90;;;7.30;60.48;93007.69;5037298;28;20190;-79
2021/12/02 04:09:38;;;;;;;1.30;1.20;;;8.10;75.80;;;7.35;60.74;93012.25;5070865;28;20258;-78
2021/12/02 04:12:15;;;;;;;1.33;1.20;;;8.10;75.90;;;7.32;60.95;93003.06;5035289;28;20231;-79
2021/12/02 04:14:50;;;;;;;1.50;1.40;;;8.10;75.80;;;7.33;60.90;93009.84;5035803;28;20268;-79
2021/12/02 04:17:19;;;;;;;1.20;1.20;;;8.10;75.80;;;7.31;60.70;93022.31;5066507;28;20219;-79
2021/12/02 04:19:47;;;;;;;1.52;1.40;;;8.10;75.80;;;7.29;60.78;93013.91;5025850;28;20215;-78
2021/12/02 04:22:14;;;;;;;1.38;1.27;;;8.10;75.70;;;7.26;60.66;93005.72;5038186;28;20583;-78
2021/12/02 04:24:41;;;;;;;1.20;1.10;;;8.10;75.80;;;7.32;60.75;93021.31;5050248;28;20302;-78
2021/12/02 04:27:08;;;;;;;1.67;1.30;;;8.10;75.80;;;7.32;60.73;93023.91;5058853;28;20203;-79
2021/12/02 04:29:36;;;;;;;1.52;1.42;;;8.10;75.80;;;7.30;60.90;93035.53;5053086;28;20273;-79
2021/12/02 04:32:04;;;;;;;1.13;1.10;;;8.10;75.80;;;7.29;60.78;93026.16;5065559;28;20266;-80
2021/12/02 04:34:31;;;;;;;1.30;1.20;;;8.10;75.80;;;7.28;60.92;93025.34;5032367;28;20319;-79
2021/12/02 04:36:58;;;;;;;1.30;1.20;;;8.10;75.80;;;7.27;60.98;93028.19;5066237;28;20688;-79
2021/12/02 04:39:25;;;;;;;2.00;1.40;;;8.10;75.90;;;7.30;61.11;93032.94;5047199;28;20261;-79
2021/12/02 04:41:53;;;;;;;1.40;1.30;;;8.10;75.90;;;7.30;61.05;93038.16;5080927;28;20199;-78
2021/12/02 04:44:21;;;;;;;1.48;1.38;;;8.20;76.00;;;7.34;61.05;93047.16;5066638;28;20293;-79
2021/12/02 04:46:50;;;;;;;1.17;1.13;;;8.10;76.00;;;7.36;60.80;93037.28;5050286;28;20223;-79
2021/12/02 04:49:17;;;;;;;3.58;3.28;;;8.10;75.90;;;7.40;60.72;93040.25;5068595;28;20211;-79
2021/12/02 04:51:45;;;;;;;2.42;2.20;;;8.10;75.90;;;7.42;60.85;93038.22;5074449;28;20196;-79
2021/12/02 04:54:12;;;;;;;1.50;1.40;;;8.20;76.00;;;7.43;60.82;93037.22;5063537;28;20216;-79
2021/12/02 04:56:39;;;;;;;1.25;1.20;;;8.10;75.80;;;7.40;60.56;93040.25;5031799;28;20263;-79
2021/12/02 04:59:06;;;;;;;2.45;2.00;;;8.20;75.80;;;7.34;60.72;93031.50;5056071;28;20722;-80
2021/12/02 05:01:34;;;;;;;11.65;9.88;;;8.20;75.70;;;7.40;60.35;93040.25;5055192;28;20199;-79
2021/12/02 05:04:02;;;;;;;3.80;3.50;;;8.20;75.60;;;7.40;60.59;93041.06;5056084;28;20223;-79
2021/12/02 05:06:29;;;;;;;2.92;2.72;;;8.20;75.60;;;7.39;60.12;93047.28;5073018;28;20283;-79
2021/12/02 05:08:57;;;;;;;1.65;1.55;;;8.20;75.60;;;7.37;60.78;93049.31;5071572;28;20302;-79
2021/12/02 05:11:25;;;;;;;2.28;2.08;;;8.20;75.60;;;7.36;60.56;93058.97;5055296;28;20252;-79
2021/12/02 05:13:52;;;;;;;1.70;1.60;;;8.20;75.60;;;7.36;60.41;93052.94;5038768;28;20242;-79
2021/12/02 05:16:19;;;;;;;1.50;1.40;;;8.10;75.50;;;7.36;60.51;93058.97;5072087;28;20231;-79
2021/12/02 05:18:47;;;;;;;1.40;1.30;;;8.10;75.60;;;7.33;60.56;93056.00;5064698;28;20215;-79
2021/12/02 05:21:14;;;;;;;2.63;1.95;;;8.10;75.60;;;7.32;60.59;93046.56;5072839;28;20343;-79
2021/12/02 05:23:42;;;;;;;2.40;1.50;;;8.10;75.60;;;7.40;60.59;93045.47;5053693;28;20258;-79
2021/12/02 05:26:09;;;;;;;2.78;2.58;;;8.10;75.70;;;7.43;60.65;93055.47;5070588;28;20253;-78
2021/12/02 05:28:36;;;;;;;2.10;1.90;;;8.20;75.70;;;7.44;60.57;93052.66;5088061;28;20196;-78
2021/12/02 05:31:03;;;;;;;1.83;1.73;;;8.20;75.70;;;7.45;60.35;93056.06;5037759;28;20294;-79
2021/12/02 05:33:31;;;;;;;2.08;1.70;;;8.20;75.70;;;7.45;60.35;93043.03;5052469;28;20199;-79
2021/12/02 05:35:58;;;;;;;1.20;1.20;;;8.20;75.60;;;7.46;60.44;93055.84;5073414;28;20269;-79
2021/12/02 05:38:25;;;;;;;1.25;1.20;;;8.20;75.70;;;7.41;60.37;93045.28;5057081;28;20267;-79
2021/12/02 05:40:52;;;;;;;1.20;1.20;;;8.20;75.50;;;7.48;60.53;93053.81;5056975;28;20195;-79
2021/12/02 05:43:20;;;;;;;1.40;1.30;;;8.20;75.60;;;7.48;60.46;93042.56;5073719;28;20724;-79
2021/12/02 05:45:48;;;;;;;1.30;1.20;;;8.20;75.50;;;7.46;60.25;93045.41;5073856;28;20223;-79
2021/12/02 05:48:15;;;;;;;1.85;1.20;;;8.20;75.60;;;7.44;60.50;93039.59;5053531;28;20350;-79
2021/12/02 05:50:42;;;;;;;1.40;1.30;;;8.20;75.50;;;7.42;59.97;93046.88;5038913;28;20248;-77
2021/12/02 05:53:09;;;;;;;1.30;1.20;;;8.20;75.50;;;7.42;60.20;93040.84;5057172;28;20719;-79
2021/12/02 05:55:36;;;;;;;1.13;1.13;;;8.20;75.50;;;7.42;60.29;93038.22;5073071;28;20234;-79
2021/12/02 05:58:04;;;;;;;1.23;1.23;;;8.20;75.50;;;7.42;60.29;93039.03;5056357;28;20214;-79
2021/12/02 06:00:31;;;;;;;1.20;1.20;;;8.20;75.40;;;7.43;60.05;93037.22;5053006;28;20315;-79
2021/12/02 06:02:58;;;;;;;2.20;1.20;;;8.20;75.40;;;7.41;59.86;93034.03;5040823;28;20195;-78
2021/12/02 06:05:27;;;;;;;1.10;1.10;;;8.20;75.30;;;7.43;60.04;93039.81;5056338;28;20709;-78
2021/12/02 06:07:57;;;;;;;1.20;1.20;;;8.20;75.30;;;7.43;60.10;93042.44;5073032;28;20218;-78
2021/12/02 06:10:26;;;;;;;1.10;1.10;;;8.20;76.10;;;7.40;60.31;93042.84;5073222;28;20645;-79
2021/12/02 06:12:53;;;;;;;1.27;1.20;;;8.20;75.30;;;7.36;60.34;93030.28;5072717;28;20310;-78
2021/12/02 06:15:21;;;;;;;1.13;1.02;;;8.20;75.40;;;7.35;60.46;93038.31;5086334;28;20302;-79
2021/12/02 06:17:48;;;;;;;1.15;1.10;;;8.10;75.20;;;7.27;60.11;93041.22;5036502;28;20220;-79
2021/12/02 06:20:20;;;;;;;1.00;1.00;;;8.10;75.20;;;7.25;60.26;93038.84;5036555;28;20241;-79
2021/12/02 06:22:47;;;;;;;1.20;1.10;;;8.10;75.20;;;7.18;60.34;93044.09;5056488;28;20230;-79
2021/12/02 06:25:44;;;;;;;1.20;1.20;;;8.10;75.10;;;7.15;60.31;93041.13;5055839;28;20247;-78
2021/12/02 06:28:05;;;;;;;1.10;1.10;;;8.00;75.20;;;7.12;60.29;93047.56;5073025;28;20211;-78
2021/12/02 06:30:33;;;;;;;1.60;1.50;;;8.00;75.20;;;7.08;60.57;93049.03;5035842;28;20705;-77
2021/12/02 06:33:00;;;;;;;1.20;1.20;;;8.00;75.20;;;7.02;60.45;93047.28;5053875;28;20204;-79
2021/12/02 06:35:29;;;;;;;1.10;1.10;;;7.90;75.10;;;6.96;60.40;93054.16;5085911;28;20286;-78
2021/12/02 06:37:57;;;;;;;1.17;1.17;;;7.90;75.10;;;6.92;60.48;93066.03;5053314;28;20284;-78
2021/12/02 06:40:25;;;;;;;1.85;1.67;;;7.90;75.20;;;6.90;60.69;93068.03;5083487;28;20212;-79
2021/12/02 06:42:52;;;;;;;1.40;1.30;;;7.80;75.20;;;6.83;60.77;93067.31;5083077;28;20227;-79
2021/12/02 06:45:20;;;;;;;1.23;1.17;;;7.80;75.20;;;6.77;60.60;93081.97;5055299;28;20617;-78
2021/12/02 06:47:48;;;;;;;1.30;1.30;;;7.70;75.30;;;6.72;60.70;93072.19;5055468;28;20599;-78
2021/12/02 06:50:18;;;;;;;2.35;2.15;;;7.70;75.30;;;6.68;60.95;93068.44;5071790;28;20298;-79
2021/12/02 06:52:49;;;;;;;1.80;1.70;;;7.60;75.30;;;6.65;60.98;93083.69;5054858;28;20203;-78
2021/12/02 06:55:17;;;;;;;1.88;1.50;;;7.60;75.40;;;6.62;61.22;93078.91;5105734;28;20226;-78
2021/12/02 06:57:45;;;;;;;1.60;1.50;;;7.60;75.50;;;6.60;61.24;93080.94;5070310;28;20223;-79
2021/12/02 07:00:16;;;;;;;1.70;1.60;;;7.50;75.50;;;6.55;61.58;93077.16;5055922;28;20219;-78
2021/12/02 07:02:43;;;;;;;1.48;1.20;;;7.50;75.70;;;6.57;61.28;93080.34;5076725;28;20227;-80
2021/12/02 07:05:13;;;;;;;1.27;1.17;;;7.50;76.60;;;6.57;61.48;93092.56;5068876;28;20231;-78
2021/12/02 07:07:41;;;;;;;1.13;1.10;;;7.50;75.80;;;6.57;61.59;93098.56;5046289;28;20222;-78
2021/12/02 07:10:23;;;;;;;1.40;1.30;;;7.40;75.90;;;6.60;61.71;93096.56;5088925;28;20739;-78
2021/12/02 07:12:56;;;;;;;1.50;1.40;;;7.40;75.90;;;6.63;61.68;93096.13;5055743;28;20245;-78
2021/12/02 07:15:29;;;;;;;3.22;2.92;;;7.40;76.00;;;6.64;61.26;93084.69;5099436;28;20223;-79
2021/12/02 07:17:59;;;;;;;1.98;1.80;;;7.40;76.00;;;6.65;61.38;93091.50;5037663;28;20265;-78
2021/12/02 07:20:33;;;;;;;1.80;1.70;;;7.40;76.00;;;6.66;61.25;93098.31;5067689;28;20585;-79
2021/12/02 07:23:03;;;;;;;1.50;1.40;;;7.40;76.00;;;6.66;61.40;93101.69;5084439;28;20638;-78
2021/12/02 07:25:31;;;;;;;1.15;1.15;;;7.40;76.00;;;6.66;61.51;93100.91;5070166;28;20690;-78
2021/12/02 07:27:59;;;;;;;1.02;1.02;;;7.40;76.00;;;6.66;61.47;93098.31;5038385;28;20223;-79
2021/12/02 07:30:26;;;;;;;1.35;1.23;;;7.40;76.10;;;6.64;61.39;93111.56;5088385;28;20223;-78
2021/12/02 07:32:57;;;;;;;1.33;1.23;;;7.40;76.00;;;6.65;61.37;93107.13;5071523;28;20199;-79
2021/12/02 07:35:26;;;;;;;5.75;3.38;;;7.40;76.00;;;6.67;61.30;93118.16;5054777;28;20268;-77
2021/12/02 07:37:57;;;;;;;8.32;4.68;;;7.40;76.00;;;6.71;61.51;93117.50;5067554;28;20259;-78
2021/12/02 07:40:26;;;;;;;1.40;1.30;;;7.50;76.20;;;6.66;61.23;93106.91;5035048;28;20759;-78
2021/12/02 07:42:54;;;;;;;1.30;1.20;;;7.50;76.10;;;6.77;61.09;93125.47;5038256;28;20766;-78
2021/12/02 07:45:26;;;;;;;5.82;2.60;;;7.50;76.10;;;6.78;61.17;93120.06;5055363;28;20215;-77
2021/12/02 07:47:53;;;;;;;2.70;1.63;;;7.50;76.10;;;6.80;61.45;93122.44;5087521;28;20207;-78
2021/12/02 07:50:21;;;;;;;7.07;3.60;;;7.50;76.10;;;6.82;61.03;93125.63;5054794;28;20708;-78
2021/12/02 07:52:52;;;;;;;4.75;2.72;;;7.50;76.10;;;6.86;61.12;93134.63;5069196;28;20303;-78
2021/12/02 07:55:23;;;;;;;2.88;2.03;;;7.60;76.10;;;6.89;61.03;93142.03;5088409;28;20216;-78
2021/12/02 07:57:53;;;;;;;4.32;2.20;;;7.60;76.10;;;6.92;60.79;93141.63;5087944;28;20318;-78
2021/12/02 08:00:24;;;;;;;5.60;2.33;;;7.60;76.10;;;6.97;61.06;93141.75;5054150;28;20222;-78
2021/12/02 08:02:53;;;;;;;2.30;1.70;;;7.60;76.10;;;6.99;60.99;93144.16;5063786;28;20638;-78
2021/12/02 08:05:22;;;;;;;1.40;1.23;;;7.70;76.20;;;7.03;61.11;93145.31;5052547;28;20242;-78
2021/12/02 08:07:51;;;;;;;3.20;2.20;;;7.70;76.10;;;7.07;60.79;93153.50;5053500;28;20206;-78
2021/12/02 08:10:20;;;;;;;1.40;1.30;;;7.70;76.00;;;7.08;61.20;93155.09;5053005;28;20219;-78
2021/12/02 08:12:49;;;;;;;1.88;1.48;;;7.70;75.90;;;7.10;60.73;93163.53;5051301;28;20202;-78
2021/12/02 08:15:22;;;;;;;1.30;1.20;;;7.80;75.80;;;7.08;60.42;93168.94;5070280;28;20294;-78
2021/12/02 08:17:51;;;;;;;3.08;1.73;;;7.80;75.70;;;7.14;60.64;93182.91;5066488;28;20226;-78
2021/12/02 08:20:21;;;;;;;2.13;1.88;;;7.80;75.70;;;7.15;60.52;93181.91;5052608;28;20211;-78
2021/12/02 08:22:49;;;;;;;1.75;1.60;;;7.80;75.70;;;7.12;60.21;93177.94;5075250;28;20291;-78
2021/12/02 08:25:21;;;;;;;1.40;1.25;;;7.80;75.50;;;7.18;60.40;93189.31;5078805;28;20211;-78
2021/12/02 08:27:50;;;;;;;1.17;1.15;;;7.90;75.40;;;7.12;59.96;93175.31;5037152;28;20203;-78
2021/12/02 08:30:21;;;;;;;1.33;1.25;;;7.90;75.40;;;7.19;59.52;93183.88;5052953;28;20313;-78
2021/12/02 08:32:49;;;;;;;1.13;1.13;;;7.90;75.10;;;7.18;59.63;93181.50;5097096;28;20291;-78
2021/12/02 08:35:18;;;;;;;1.10;1.10;;;7.90;75.10;;;7.19;59.86;93181.28;5058011;28;20203;-78
2021/12/02 08:37:48;;;;;;;2.85;1.40;;;7.90;75.10;;;7.18;59.29;93184.91;5082561;28;20254;-77
2021/12/02 08:40:22;;;;;;;1.00;1.00;;;7.90;75.00;;;7.22;59.69;93187.88;5073323;28;20238;-78
2021/12/02 08:42:50;;;;;;;1.10;1.10;;;7.90;75.00;;;7.21;59.87;93186.28;5080736;28;20196;-78
2021/12/02 08:45:17;;;;;;;1.20;1.20;;;7.90;75.10;;;7.25;60.01;93194.47;5056615;28;20215;-78
2021/12/02 08:47:44;;;;;;;1.45;1.20;;;7.90;75.10;;;7.25;59.57;93199.69;5040527;28;20269;-78
2021/12/02 08:50:19;;;;;;;1.30;1.20;;;8.00;75.00;;;7.27;59.35;93200.28;5085749;28;20222;-78
2021/12/02 08:52:49;;;;;;;2.35;1.30;;;8.00;74.50;;;7.30;59.49;93200.66;5043369;28;20199;-79
2021/12/02 08:55:19;;;;;;;1.40;1.30;;;8.00;74.90;;;7.31;59.74;93199.66;5042990;28;20681;-78
2021/12/02 08:57:48;;;;;;;2.83;2.30;;;8.00;75.00;;;7.36;59.78;93193.75;5057038;28;20318;-79
2021/12/02 09:00:20;;;;;;;1.52;1.42;;;8.00;75.00;;;7.37;59.82;93195.38;5073323;28;20306;-79
2021/12/02 09:02:48;;;;;;;2.25;2.05;;;8.00;74.90;;;7.41;59.89;93203.56;5073700;28;20214;-79
2021/12/02 09:05:16;;;;;;;2.63;2.10;;;8.00;75.00;;;7.43;59.24;93201.53;5107465;28;20685;-79
2021/12/02 09:07:43;;;;;;;4.03;1.63;;;8.10;75.00;;;7.49;59.40;93208.50;5057519;28;20329;-79
2021/12/02 09:10:14;;;;;;;1.60;1.50;;;8.10;75.00;;;7.54;59.76;93208.66;5057761;28;20728;-79
2021/12/02 09:12:44;;;;;;;1.30;1.20;;;8.10;75.00;;;7.60;59.63;93199.19;5043151;28;20203;-79
2021/12/02 09:15:11;;;;;;;2.13;1.48;;;8.20;75.00;;;7.64;59.56;93208.16;5070486;28;20226;-79
2021/12/02 09:17:39;;;;;;;1.90;1.80;;;8.30;75.20;;;7.71;59.61;93213.34;5070697;28;20265;-79
2021/12/02 09:20:09;;;;;;;1.63;1.52;;;8.30;75.20;;;7.78;59.45;93203.63;5084344;28;20305;-79
2021/12/02 09:22:37;;;;;;;2.05;1.77;;;8.30;75.00;;;7.81;59.78;93204.00;5057229;28;20253;-79
2021/12/02 09:25:05;;;;;;;3.38;1.90;;;8.30;75.20;;;7.83;59.31;93203.78;5057205;28;20757;-78
2021/12/02 09:27:33;;;;;;;1.92;1.55;;;8.40;74.80;;;7.93;59.34;93206.66;5054752;28;20196;-78
2021/12/02 09:30:01;;;;;;;1.70;1.58;;;8.40;74.80;;;7.95;59.28;93202.03;5042366;28;20757;-78
2021/12/02 09:32:28;;;;;;;1.85;1.75;;;8.50;74.80;;;7.97;59.04;93200.00;5040025;28;20219;-79
2021/12/02 09:34:56;;;;;;;2.30;1.83;;;8.50;74.80;;;7.98;58.86;93199.00;5073209;28;20220;-79
2021/12/02 09:37:23;;;;;;;2.72;1.60;;;8.60;74.90;;;8.02;58.86;93194.13;5073147;28;20566;-78
2021/12/02 09:39:50;;;;;;;2.03;1.55;;;8.70;75.00;;;8.07;59.17;93186.44;5056827;28;20284;-79
2021/12/02 09:42:19;;;;;;;2.88;1.90;;;8.60;74.90;;;8.11;58.99;93187.59;5056263;28;20604;-79
2021/12/02 09:45:00;;;;;;;1.50;1.40;;;8.70;75.00;;;8.12;57.33;93193.63;5056670;28;20312;-79
2021/12/02 09:47:33;;;;;;;1.83;1.50;;;8.70;74.40;;;8.15;58.17;93199.22;5043528;28;20275;-79
2021/12/02 09:50:06;;;;;;;3.83;2.13;;;8.70;74.50;;;8.16;57.36;93192.16;5067818;28;20219;-79
2021/12/02 09:52:42;;;;;;;2.00;1.80;;;8.80;74.00;;;8.16;57.94;93189.53;5056212;28;20205;-78
2021/12/02 09:55:23;;;;;;;3.35;2.08;;;8.80;74.30;;;8.17;57.99;93185.91;5070999;28;20704;-78
2021/12/02 09:57:55;;;;;;;2.28;2.08;;;8.90;74.20;;;8.17;58.02;93178.88;5073236;28;20265;-79
2021/12/02 10:00:37;;;;;;;1.90;1.80;;;8.80;74.30;;;8.20;58.04;93171.63;5040304;28;20215;-79
2021/12/02 10:03:17;;;;;;;2.33;1.50;;;8.80;74.30;;;8.23;58.58;93185.03;5065869;28;20611;-80
2021/12/02 10:05:56;;;;;;;1.55;1.45;;;8.80;74.40;;;8.24;58.33;93183.22;5051291;28;20693;-79
2021/12/02 10:08:32;;;;;;;1.88;1.42;;;8.80;74.40;;;8.20;57.57;93176.84;5057725;28;20601;-80
2021/12/02 10:11:02;;;;;;;1.40;1.33;;;8.90;73.70;;;8.22;57.89;93174.81;5056873;28;20723;-80
2021/12/02 10:14:00;;;;;;;1.45;1.30;;;8.90;74.20;;;8.18;56.69;93175.25;5047637;28;20681;-80
2021/12/02 10:16:30;;;;;;;1.65;1.42;;;8.90;73.40;;;8.15;57.34;93182.72;5086150;28;20245;-79
2021/12/02 10:19:03;;;;;;;1.65;1.30;;;8.90;73.60;;;8.17;57.56;93186.72;5072230;28;20245;-79
2021/12/02 10:21:43;;;;;;;1.50;1.40;;;8.90;73.50;;;8.18;56.93;93188.31;5056428;28;20207;-80
2021/12/02 10:24:23;;;;;;;1.30;1.20;;;8.90;73.20;;;8.18;57.14;93177.84;5055774;28;20211;-79
2021/12/02 10:27:04;;;;;;;1.55;1.40;;;8.90;73.20;;;8.20;57.05;93176.84;5086273;28;20199;-79
2021/12/02 10:29:47;;;;;;;1.42;1.20;;;8.90;73.00;;;8.20;57.07;93172.41;5086644;28;20227;-79
2021/12/02 10:32:25;;;;;;;1.10;1.10;;;8.90;73.40;;;8.18;56.95;93174.47;5055231;28;20249;-80
2021/12/02 10:34:57;;;;;;;1.08;1.00;;;8.90;73.00;;;8.16;56.19;93172.06;5039122;28;20735;-80
2021/12/02 10:37:33;;;;;;;1.40;1.30;;;8.90;73.00;;;8.19;57.35;93173.44;5055032;28;20227;-80
2021/12/02 10:40:21;;;;;;;1.48;1.23;;;8.90;72.90;;;8.18;57.09;93177.06;5037789;28;20239;-78
2021/12/02 10:42:48;;;;;;;1.67;1.30;;;8.90;72.80;;;8.18;56.82;93177.84;5055704;28;20207;-80
2021/12/02 10:45:26;;;;;;;1.40;1.30;;;8.90;73.10;;;8.15;56.28;93172.28;5055438;28;20309;-79
2021/12/02 10:47:55;;;;;;;1.60;1.20;;;8.90;72.50;;;8.17;56.62;93172.88;5079622;28;20223;-79
2021/12/02 10:50:25;;;;;;;1.40;1.30;;;8.90;72.90;;;8.18;56.36;93171.84;5044952;28;20257;-79
2021/12/02 10:52:53;;;;;;;1.38;1.25;;;8.90;72.90;;;8.20;56.41;93171.63;5065732;28;20676;-80
2021/12/02 10:55:23;;;;;;;1.30;1.20;;;8.80;72.80;;;8.21;56.32;93168.00;5053849;28;20294;-80
2021/12/02 10:57:58;;;;;;;1.45;1.30;;;8.90;72.60;;;8.25;56.26;93176.97;5039476;28;20262;-80
2021/12/02 11:00:33;;;;;;;1.00;1.00;;;8.90;72.80;;;8.28;56.66;93172.13;5076420;28;20297;-80